sensor_id;sensor_type;location;lat;lon;timestamp;pressure;altitude;pressure_sealevel;temperature;humidity
83836;BME280;73859;40.830;43.828;2023-11-19T00:02:00;83585.66;;;8.52;59.87
83836;BME280;73859;40.830;43.828;2023-11-19T00:04:28;83465.22;;;7.68;59.11
83836;BME280;73859;40.830;43.828;2023-11-19T00:06:55;83580.50;;;8.52;58.88
83836;BME280;73859;40.830;43.828;2023-11-19T00:09:24;83578.59;;;8.53;59.38
83836;BME280;73859;40.830;43.828;2023-11-19T00:11:52;83568.94;;;8.46;59.38
83836;BME280;73859;40.830;43.828;2023-11-19T00:14:20;83566.91;;;8.52;59.33
83836;BME280;73859;40.830;43.828;2023-11-19T00:16:48;83557.16;;;8.29;59.00
83836;BME280;73859;40.830;43.828;2023-11-19T00:19:18;83522.94;;;8.01;59.33
83836;BME280;73859;40.830;43.828;2023-11-19T00:21:45;83565.06;;;8.31;59.06
83836;BME280;73859;40.830;43.828;2023-11-19T00:24:13;83574.03;;;8.38;58.61
83836;BME280;73859;40.830;43.828;2023-11-19T00:26:43;83582.66;;;8.41;59.58
83836;BME280;73859;40.830;43.828;2023-11-19T00:29:10;83560.53;;;8.24;59.16
83836;BME280;73859;40.830;43.828;2023-11-19T00:31:37;83569.19;;;8.34;58.94
83836;BME280;73859;40.830;43.828;2023-11-19T00:34:05;83577.81;;;8.37;59.22
83836;BME280;73859;40.830;43.828;2023-11-19T00:36:33;83554.56;;;8.29;58.73
83836;BME280;73859;40.830;43.828;2023-11-19T00:39:00;83446.25;;;7.58;59.40
83836;BME280;73859;40.830;43.828;2023-11-19T00:41:27;83521.56;;;8.00;59.44
83836;BME280;73859;40.830;43.828;2023-11-19T00:43:55;83543.97;;;8.12;59.53
83836;BME280;73859;40.830;43.828;2023-11-19T00:46:22;83538.31;;;8.14;59.72
83836;BME280;73859;40.830;43.828;2023-11-19T00:48:50;83528.16;;;8.08;59.94
83836;BME280;73859;40.830;43.828;2023-11-19T00:51:17;83461.50;;;7.56;59.76
83836;BME280;73859;40.830;43.828;2023-11-19T00:53:44;83469.56;;;7.52;59.90
83836;BME280;73859;40.830;43.828;2023-11-19T00:56:12;83479.97;;;7.67;59.76
83836;BME280;73859;40.830;43.828;2023-11-19T00:58:39;83567.19;;;8.41;59.58
83836;BME280;73859;40.830;43.828;2023-11-19T01:01:06;83528.28;;;8.31;59.43
83836;BME280;73859;40.830;43.828;2023-11-19T01:03:34;83429.63;;;7.59;59.58
83836;BME280;73859;40.830;43.828;2023-11-19T01:06:01;83528.13;;;8.29;59.82
83836;BME280;73859;40.830;43.828;2023-11-19T01:08:29;83546.44;;;8.46;59.61
83836;BME280;73859;40.830;43.828;2023-11-19T01:10:56;83545.56;;;8.44;59.49
83836;BME280;73859;40.830;43.828;2023-11-19T01:13:24;83543.44;;;8.34;60.05
83836;BME280;73859;40.830;43.828;2023-11-19T01:15:51;83522.03;;;8.19;59.99
83836;BME280;73859;40.830;43.828;2023-11-19T01:18:19;83532.38;;;8.26;59.89
83836;BME280;73859;40.830;43.828;2023-11-19T01:20:46;83532.88;;;8.25;59.74
83836;BME280;73859;40.830;43.828;2023-11-19T01:23:14;83526.84;;;8.22;59.92
83836;BME280;73859;40.830;43.828;2023-11-19T01:25:41;83522.72;;;8.19;60.06
83836;BME280;73859;40.830;43.828;2023-11-19T01:28:08;83532.38;;;8.26;60.27
83836;BME280;73859;40.830;43.828;2023-11-19T01:30:35;83525.97;;;8.20;60.14
83836;BME280;73859;40.830;43.828;2023-11-19T01:33:04;83526.41;;;8.31;60.22
83836;BME280;73859;40.830;43.828;2023-11-19T01:35:31;83531.75;;;8.33;59.97
83836;BME280;73859;40.830;43.828;2023-11-19T01:37:58;83523.66;;;8.29;60.54
83836;BME280;73859;40.830;43.828;2023-11-19T01:40:26;83525.22;;;8.32;59.79
83836;BME280;73859;40.830;43.828;2023-11-19T01:42:53;83508.25;;;8.16;59.93
83836;BME280;73859;40.830;43.828;2023-11-19T01:45:27;83513.13;;;8.27;60.09
83836;BME280;73859;40.830;43.828;2023-11-19T01:47:55;83505.31;;;8.33;59.96
83836;BME280;73859;40.830;43.828;2023-11-19T01:50:23;83510.13;;;8.36;60.27
83836;BME280;73859;40.830;43.828;2023-11-19T01:52:54;83494.63;;;8.29;60.54
83836;BME280;73859;40.830;43.828;2023-11-19T01:55:27;83494.56;;;8.21;60.81
83836;BME280;73859;40.830;43.828;2023-11-19T01:57:59;83515.34;;;8.23;61.03
83836;BME280;73859;40.830;43.828;2023-11-19T02:00:27;83525.16;;;8.25;60.90
83836;BME280;73859;40.830;43.828;2023-11-19T02:02:55;83522.19;;;8.21;60.89
83836;BME280;73859;40.830;43.828;2023-11-19T02:05:23;83509.28;;;8.13;60.74
83836;BME280;73859;40.830;43.828;2023-11-19T02:07:51;83513.72;;;8.13;60.99
83836;BME280;73859;40.830;43.828;2023-11-19T02:10:19;83514.63;;;8.15;60.81
83836;BME280;73859;40.830;43.828;2023-11-19T02:12:46;83450.75;;;7.85;60.71
83836;BME280;73859;40.830;43.828;2023-11-19T02:15:13;83504.50;;;8.17;60.78
83836;BME280;73859;40.830;43.828;2023-11-19T02:17:41;83515.16;;;8.21;60.37
83836;BME280;73859;40.830;43.828;2023-11-19T02:20:08;83385.69;;;7.28;60.65
83836;BME280;73859;40.830;43.828;2023-11-19T02:22:39;83420.50;;;7.58;60.32
83836;BME280;73859;40.830;43.828;2023-11-19T02:25:08;83501.06;;;8.15;60.86
83836;BME280;73859;40.830;43.828;2023-11-19T02:27:54;83504.88;;;8.21;61.08
83836;BME280;73859;40.830;43.828;2023-11-19T02:30:23;83506.25;;;8.22;60.58
83836;BME280;73859;40.830;43.828;2023-11-19T02:32:56;83420.03;;;7.59;61.09
83836;BME280;73859;40.830;43.828;2023-11-19T02:35:25;83496.97;;;8.27;60.55
83836;BME280;73859;40.830;43.828;2023-11-19T02:37:59;83381.66;;;7.40;60.74
83836;BME280;73859;40.830;43.828;2023-11-19T02:40:27;83480.78;;;8.11;60.64
83836;BME280;73859;40.830;43.828;2023-11-19T02:42:55;83489.03;;;8.17;60.67
83836;BME280;73859;40.830;43.828;2023-11-19T02:45:24;83477.00;;;8.12;60.46
83836;BME280;73859;40.830;43.828;2023-11-19T02:47:52;83484.25;;;8.21;60.57
83836;BME280;73859;40.830;43.828;2023-11-19T02:50:21;83479.09;;;8.21;60.56
83836;BME280;73859;40.830;43.828;2023-11-19T02:52:55;83428.59;;;7.82;60.70
83836;BME280;73859;40.830;43.828;2023-11-19T02:55:24;83480.16;;;8.26;60.32
83836;BME280;73859;40.830;43.828;2023-11-19T02:57:52;83422.91;;;7.84;60.49
83836;BME280;73859;40.830;43.828;2023-11-19T03:00:21;83475.91;;;8.28;60.99
83836;BME280;73859;40.830;43.828;2023-11-19T03:02:59;83446.09;;;8.12;60.05
83836;BME280;73859;40.830;43.828;2023-11-19T03:05:27;83478.84;;;8.32;60.24
83836;BME280;73859;40.830;43.828;2023-11-19T03:07:57;83495.00;;;8.33;60.34
83836;BME280;73859;40.830;43.828;2023-11-19T03:10:24;83489.84;;;8.33;60.13
83836;BME280;73859;40.830;43.828;2023-11-19T03:12:52;83473.13;;;8.26;60.21
83836;BME280;73859;40.830;43.828;2023-11-19T03:15:19;83489.16;;;8.32;60.21
83836;BME280;73859;40.830;43.828;2023-11-19T03:17:48;83375.09;;;7.60;60.26
83836;BME280;73859;40.830;43.828;2023-11-19T03:20:15;83463.47;;;8.19;59.98
83836;BME280;73859;40.830;43.828;2023-11-19T03:22:43;83476.38;;;8.27;59.90
83836;BME280;73859;40.830;43.828;2023-11-19T03:25:11;83459.88;;;8.22;59.56
83836;BME280;73859;40.830;43.828;2023-11-19T03:27:39;83465.19;;;8.24;59.62
83836;BME280;73859;40.830;43.828;2023-11-19T03:30:06;83446.75;;;8.13;59.67
83836;BME280;73859;40.830;43.828;2023-11-19T03:32:34;83454.84;;;8.17;59.67
83836;BME280;73859;40.830;43.828;2023-11-19T03:35:03;83456.63;;;8.22;59.66
83836;BME280;73859;40.830;43.828;2023-11-19T03:37:37;83455.91;;;8.21;59.63
83836;BME280;73859;40.830;43.828;2023-11-19T03:40:05;83466.59;;;8.25;59.82
83836;BME280;73859;40.830;43.828;2023-11-19T03:42:32;83464.00;;;8.25;59.84
83836;BME280;73859;40.830;43.828;2023-11-19T03:45:00;83457.81;;;8.21;59.77
83836;BME280;73859;40.830;43.828;2023-11-19T03:47:27;83442.09;;;8.04;59.88
83836;BME280;73859;40.830;43.828;2023-11-19T03:49:54;83442.97;;;8.06;59.96
83836;BME280;73859;40.830;43.828;2023-11-19T03:52:22;83448.09;;;8.06;60.05
83836;BME280;73859;40.830;43.828;2023-11-19T03:54:49;83451.53;;;8.01;59.87
83836;BME280;73859;40.830;43.828;2023-11-19T03:57:16;83419.25;;;7.72;60.21
83836;BME280;73859;40.830;43.828;2023-11-19T03:59:44;83446.81;;;7.92;60.63
83836;BME280;73859;40.830;43.828;2023-11-19T04:02:11;83450.03;;;7.85;60.64
83836;BME280;73859;40.830;43.828;2023-11-19T04:04:39;83448.13;;;7.78;60.69
83836;BME280;73859;40.830;43.828;2023-11-19T04:07:06;83393.44;;;7.36;60.90
83836;BME280;73859;40.830;43.828;2023-11-19T04:09:34;83471.00;;;7.89;60.95
83836;BME280;73859;40.830;43.828;2023-11-19T04:12:03;83460.34;;;7.85;61.19
83836;BME280;73859;40.830;43.828;2023-11-19T04:14:30;83457.91;;;7.79;61.18
83836;BME280;73859;40.830;43.828;2023-11-19T04:16:58;83465.88;;;7.89;60.89
83836;BME280;73859;40.830;43.828;2023-11-19T04:19:25;83455.69;;;7.83;60.70
83836;BME280;73859;40.830;43.828;2023-11-19T04:21:52;83366.75;;;7.18;60.93
83836;BME280;73859;40.830;43.828;2023-11-19T04:24:20;83465.66;;;7.87;60.73
83836;BME280;73859;40.830;43.828;2023-11-19T04:26:47;83379.59;;;7.18;61.04
83836;BME280;73859;40.830;43.828;2023-11-19T04:29:16;83483.25;;;7.96;60.91
83836;BME280;73859;40.830;43.828;2023-11-19T04:31:44;83487.69;;;7.96;61.04
83836;BME280;73859;40.830;43.828;2023-11-19T04:34:12;83506.78;;;8.00;62.27
83836;BME280;73859;40.830;43.828;2023-11-19T04:36:39;83498.38;;;8.00;61.01
83836;BME280;73859;40.830;43.828;2023-11-19T04:39:07;83486.19;;;8.00;60.77
83836;BME280;73859;40.830;43.828;2023-11-19T04:41:36;83494.47;;;8.06;60.82
83836;BME280;73859;40.830;43.828;2023-11-19T04:44:03;83483.25;;;7.96;61.05
83836;BME280;73859;40.830;43.828;2023-11-19T04:46:31;83490.31;;;8.03;61.10
83836;BME280;73859;40.830;43.828;2023-11-19T04:48:58;83494.63;;;8.01;60.99
83836;BME280;73859;40.830;43.828;2023-11-19T04:51:26;83492.59;;;8.07;60.77
83836;BME280;73859;40.830;43.828;2023-11-19T04:53:53;83486.56;;;8.04;60.70
83836;BME280;73859;40.830;43.828;2023-11-19T04:56:20;83485.56;;;8.07;60.90
83836;BME280;73859;40.830;43.828;2023-11-19T04:58:49;83472.84;;;8.09;60.49
83836;BME280;73859;40.830;43.828;2023-11-19T05:01:17;83471.53;;;8.23;60.42
83836;BME280;73859;40.830;43.828;2023-11-19T05:03:44;83379.25;;;7.71;60.13
83836;BME280;73859;40.830;43.828;2023-11-19T05:06:12;83469.28;;;8.41;60.11
83836;BME280;73859;40.830;43.828;2023-11-19T05:08:40;83472.38;;;8.47;59.95
83836;BME280;73859;40.830;43.828;2023-11-19T05:11:07;83417.09;;;8.19;59.70
83836;BME280;73859;40.830;43.828;2023-11-19T05:13:34;83455.94;;;8.57;59.62
83836;BME280;73859;40.830;43.828;2023-11-19T05:16:02;83445.22;;;8.46;60.05
83836;BME280;73859;40.830;43.828;2023-11-19T05:18:30;83462.81;;;8.55;59.91
83836;BME280;73859;40.830;43.828;2023-11-19T05:20:57;83468.00;;;8.62;59.76
83836;BME280;73859;40.830;43.828;2023-11-19T05:23:24;83467.28;;;8.62;59.79
83836;BME280;73859;40.830;43.828;2023-11-19T05:25:51;83473.66;;;8.61;59.98
83836;BME280;73859;40.830;43.828;2023-11-19T05:28:19;83461.66;;;8.63;59.93
83836;BME280;73859;40.830;43.828;2023-11-19T05:30:46;83466.81;;;8.71;59.83
83836;BME280;73859;40.830;43.828;2023-11-19T05:33:14;83467.19;;;8.82;59.67
83836;BME280;73859;40.830;43.828;2023-11-19T05:35:41;83459.81;;;8.86;59.92
83836;BME280;73859;40.830;43.828;2023-11-19T05:38:09;83464.63;;;8.90;59.78
83836;BME280;73859;40.830;43.828;2023-11-19T05:40:37;83455.72;;;8.99;59.55
83836;BME280;73859;40.830;43.828;2023-11-19T05:43:06;83451.44;;;9.01;59.49
83836;BME280;73859;40.830;43.828;2023-11-19T05:45:33;83448.00;;;9.06;59.08
83836;BME280;73859;40.830;43.828;2023-11-19T05:48:01;83442.19;;;9.13;58.83
83836;BME280;73859;40.830;43.828;2023-11-19T05:50:31;83435.81;;;9.14;58.77
83836;BME280;73859;40.830;43.828;2023-11-19T05:52:59;83432.91;;;9.33;58.56
83836;BME280;73859;40.830;43.828;2023-11-19T05:55:26;83426.56;;;9.49;58.61
83836;BME280;73859;40.830;43.828;2023-11-19T05:57:55;83422.94;;;9.60;58.48
83836;BME280;73859;40.830;43.828;2023-11-19T06:00:22;83420.53;;;9.69;58.08
83836;BME280;73859;40.830;43.828;2023-11-19T06:02:50;83419.16;;;9.83;58.09
83836;BME280;73859;40.830;43.828;2023-11-19T06:05:17;83416.38;;;9.89;58.30
83836;BME280;73859;40.830;43.828;2023-11-19T06:07:45;83404.84;;;9.90;58.27
83836;BME280;73859;40.830;43.828;2023-11-19T06:10:13;83359.94;;;9.55;58.11
83836;BME280;73859;40.830;43.828;2023-11-19T06:12:44;83402.78;;;9.81;58.16
83836;BME280;73859;40.830;43.828;2023-11-19T06:15:13;83423.78;;;9.85;58.45
83836;BME280;73859;40.830;43.828;2023-11-19T06:17:40;83415.69;;;9.89;58.67
83836;BME280;73859;40.830;43.828;2023-11-19T06:20:08;83421.69;;;10.06;58.40
83836;BME280;73859;40.830;43.828;2023-11-19T06:22:36;83423.41;;;10.11;58.20
83836;BME280;73859;40.830;43.828;2023-11-19T06:25:03;83414.81;;;10.16;57.75
83836;BME280;73859;40.830;43.828;2023-11-19T06:27:35;83401.22;;;10.16;57.68
83836;BME280;73859;40.830;43.828;2023-11-19T06:30:02;83406.53;;;10.25;57.58
83836;BME280;73859;40.830;43.828;2023-11-19T06:32:30;83389.16;;;10.18;57.56
83836;BME280;73859;40.830;43.828;2023-11-19T06:34:59;83407.38;;;10.13;57.60
83836;BME280;73859;40.830;43.828;2023-11-19T06:37:27;83402.56;;;10.09;57.60
83836;BME280;73859;40.830;43.828;2023-11-19T06:39:54;83406.19;;;10.06;57.73
83836;BME280;73859;40.830;43.828;2023-11-19T06:42:22;83410.00;;;10.05;57.75
83836;BME280;73859;40.830;43.828;2023-11-19T06:44:49;83424.13;;;10.12;57.72
83836;BME280;73859;40.830;43.828;2023-11-19T06:47:17;83412.03;;;10.29;57.74
83836;BME280;73859;40.830;43.828;2023-11-19T06:49:44;83400.84;;;10.35;57.30
83836;BME280;73859;40.830;43.828;2023-11-19T06:52:12;83395.38;;;10.63;56.95
83836;BME280;73859;40.830;43.828;2023-11-19T06:54:39;83376.34;;;10.75;56.47
83836;BME280;73859;40.830;43.828;2023-11-19T06:57:07;83407.50;;;10.93;56.48
83836;BME280;73859;40.830;43.828;2023-11-19T06:59:36;83404.84;;;11.00;56.40
83836;BME280;73859;40.830;43.828;2023-11-19T07:02:04;83422.88;;;11.23;56.41
83836;BME280;73859;40.830;43.828;2023-11-19T07:04:32;83323.56;;;10.78;55.96
83836;BME280;73859;40.830;43.828;2023-11-19T07:07:00;83427.41;;;11.47;55.92
83836;BME280;73859;40.830;43.828;2023-11-19T07:09:27;83415.38;;;11.35;55.92
83836;BME280;73859;40.830;43.828;2023-11-19T07:11:55;83412.22;;;11.11;56.11
83836;BME280;73859;40.830;43.828;2023-11-19T07:14:23;83398.25;;;11.14;56.15
83836;BME280;73859;40.830;43.828;2023-11-19T07:16:50;83390.34;;;11.05;56.04
83836;BME280;73859;40.830;43.828;2023-11-19T07:19:18;83378.00;;;10.96;56.28
83836;BME280;73859;40.830;43.828;2023-11-19T07:21:46;83319.66;;;10.38;56.59
83836;BME280;73859;40.830;43.828;2023-11-19T07:24:13;83385.75;;;10.96;56.59
83836;BME280;73859;40.830;43.828;2023-11-19T07:26:43;83382.25;;;11.01;56.75
83836;BME280;73859;40.830;43.828;2023-11-19T07:29:11;83395.94;;;10.94;56.89
83836;BME280;73859;40.830;43.828;2023-11-19T07:31:38;83398.56;;;10.86;56.96
83836;BME280;73859;40.830;43.828;2023-11-19T07:34:05;83396.00;;;10.78;56.73
83836;BME280;73859;40.830;43.828;2023-11-19T07:36:33;83395.38;;;10.63;56.34
83836;BME280;73859;40.830;43.828;2023-11-19T07:39:01;83393.81;;;10.67;56.89
83836;BME280;73859;40.830;43.828;2023-11-19T07:41:28;83388.94;;;10.79;56.98
83836;BME280;73859;40.830;43.828;2023-11-19T07:43:55;83388.56;;;10.82;56.85
83836;BME280;73859;40.830;43.828;2023-11-19T07:46:23;83392.38;;;10.81;56.99
83836;BME280;73859;40.830;43.828;2023-11-19T07:48:52;83354.75;;;10.48;56.78
83836;BME280;73859;40.830;43.828;2023-11-19T07:51:19;83402.88;;;10.83;56.91
83836;BME280;73859;40.830;43.828;2023-11-19T07:53:47;83391.97;;;10.93;56.70
83836;BME280;73859;40.830;43.828;2023-11-19T07:56:14;83392.06;;;11.10;56.60
83836;BME280;73859;40.830;43.828;2023-11-19T07:58:42;83399.53;;;11.30;56.50
83836;BME280;73859;40.830;43.828;2023-11-19T08:01:09;83388.09;;;11.33;56.20
83836;BME280;73859;40.830;43.828;2023-11-19T08:03:37;83383.63;;;11.34;56.04
83836;BME280;73859;40.830;43.828;2023-11-19T08:06:04;83377.19;;;11.43;55.91
83836;BME280;73859;40.830;43.828;2023-11-19T08:08:32;83360.00;;;11.55;55.41
83836;BME280;73859;40.830;43.828;2023-11-19T08:11:00;83368.53;;;11.72;54.90
83836;BME280;73859;40.830;43.828;2023-11-19T08:13:27;83373.94;;;11.84;54.63
83836;BME280;73859;40.830;43.828;2023-11-19T08:15:55;83356.28;;;11.90;54.25
83836;BME280;73859;40.830;43.828;2023-11-19T08:18:22;83358.06;;;12.05;54.17
83836;BME280;73859;40.830;43.828;2023-11-19T08:20:50;83337.84;;;12.03;53.78
83836;BME280;73859;40.830;43.828;2023-11-19T08:23:20;83368.38;;;12.29;53.80
83836;BME280;73859;40.830;43.828;2023-11-19T08:25:48;83353.78;;;12.17;53.95
83836;BME280;73859;40.830;43.828;2023-11-19T08:28:15;83350.59;;;12.09;52.95
83836;BME280;73859;40.830;43.828;2023-11-19T08:30:42;83297.72;;;11.70;52.86
83836;BME280;73859;40.830;43.828;2023-11-19T08:33:11;83341.75;;;12.12;50.97
83836;BME280;73859;40.830;43.828;2023-11-19T08:35:38;83318.03;;;12.15;52.69
83836;BME280;73859;40.830;43.828;2023-11-19T08:38:05;83327.63;;;12.40;50.94
83836;BME280;73859;40.830;43.828;2023-11-19T08:40:33;83323.19;;;12.50;51.18
83836;BME280;73859;40.830;43.828;2023-11-19T08:43:01;83315.47;;;12.59;50.50
83836;BME280;73859;40.830;43.828;2023-11-19T08:45:28;83306.53;;;12.70;50.13
83836;BME280;73859;40.830;43.828;2023-11-19T08:47:55;83308.06;;;12.73;51.01
83836;BME280;73859;40.830;43.828;2023-11-19T08:50:23;83303.50;;;12.91;49.31
83836;BME280;73859;40.830;43.828;2023-11-19T08:52:51;83304.88;;;12.92;49.52
83836;BME280;73859;40.830;43.828;2023-11-19T08:55:18;83310.41;;;12.78;49.43
83836;BME280;73859;40.830;43.828;2023-11-19T08:57:45;83286.41;;;12.61;49.45
83836;BME280;73859;40.830;43.828;2023-11-19T09:00:13;83318.59;;;12.58;50.50
83836;BME280;73859;40.830;43.828;2023-11-19T09:02:43;83297.16;;;12.57;50.44
83836;BME280;73859;40.830;43.828;2023-11-19T09:05:10;83317.75;;;12.72;50.48
83836;BME280;73859;40.830;43.828;2023-11-19T09:07:39;83304.63;;;12.70;49.71
83836;BME280;73859;40.830;43.828;2023-11-19T09:10:06;83296.47;;;12.57;50.48
83836;BME280;73859;40.830;43.828;2023-11-19T09:12:35;83309.22;;;12.62;50.58
83836;BME280;73859;40.830;43.828;2023-11-19T09:15:03;83292.66;;;12.58;49.88
83836;BME280;73859;40.830;43.828;2023-11-19T09:17:30;83229.00;;;12.47;48.53
83836;BME280;73859;40.830;43.828;2023-11-19T09:19:58;83298.75;;;13.23;48.71
83836;BME280;73859;40.830;43.828;2023-11-19T09:22:25;83284.97;;;13.31;47.33
83836;BME280;73859;40.830;43.828;2023-11-19T09:24:52;83288.28;;;13.41;47.87
83836;BME280;73859;40.830;43.828;2023-11-19T09:27:20;83222.56;;;13.48;46.57
83836;BME280;73859;40.830;43.828;2023-11-19T09:29:48;83249.03;;;14.40;46.87
83836;BME280;73859;40.830;43.828;2023-11-19T09:32:16;83283.78;;;14.54;47.23
83836;BME280;73859;40.830;43.828;2023-11-19T09:34:44;83294.59;;;14.80;47.57
83836;BME280;73859;40.830;43.828;2023-11-19T09:37:11;83288.88;;;14.43;48.40
83836;BME280;73859;40.830;43.828;2023-11-19T09:39:42;83246.97;;;14.19;48.10
83836;BME280;73859;40.830;43.828;2023-11-19T09:42:12;83281.84;;;14.07;49.11
83836;BME280;73859;40.830;43.828;2023-11-19T09:44:42;83283.19;;;13.79;49.80
83836;BME280;73859;40.830;43.828;2023-11-19T09:47:11;83272.06;;;13.50;49.89
83836;BME280;73859;40.830;43.828;2023-11-19T09:49:39;83268.47;;;13.36;50.58
83836;BME280;73859;40.830;43.828;2023-11-19T09:52:07;83274.59;;;13.31;50.72
83836;BME280;73859;40.830;43.828;2023-11-19T09:54:35;83273.13;;;13.47;50.54
83836;BME280;73859;40.830;43.828;2023-11-19T09:57:04;83266.66;;;14.61;49.17
83836;BME280;73859;40.830;43.828;2023-11-19T09:59:31;83243.94;;;14.61;48.69
83836;BME280;73859;40.830;43.828;2023-11-19T10:02:00;83249.41;;;14.17;50.19
83836;BME280;73859;40.830;43.828;2023-11-19T10:04:29;83256.25;;;14.03;50.25
83836;BME280;73859;40.830;43.828;2023-11-19T10:06:57;83241.31;;;15.21;48.51
83836;BME280;73859;40.830;43.828;2023-11-19T10:09:24;83240.72;;;16.69;45.74
83836;BME280;73859;40.830;43.828;2023-11-19T10:11:52;83228.97;;;17.82;42.46
83836;BME280;73859;40.830;43.828;2023-11-19T10:14:22;83225.09;;;18.55;40.07
83836;BME280;73859;40.830;43.828;2023-11-19T10:16:51;83223.53;;;19.26;39.71
83836;BME280;73859;40.830;43.828;2023-11-19T10:19:21;83206.91;;;19.60;38.12
83836;BME280;73859;40.830;43.828;2023-11-19T10:21:48;83217.34;;;18.57;41.08
83836;BME280;73859;40.830;43.828;2023-11-19T10:24:16;83217.16;;;17.70;41.08
83836;BME280;73859;40.830;43.828;2023-11-19T10:26:46;83215.63;;;17.32;39.35
83836;BME280;73859;40.830;43.828;2023-11-19T10:29:14;83220.63;;;17.16;39.07
83836;BME280;73859;40.830;43.828;2023-11-19T10:31:55;83224.97;;;16.67;38.80
83836;BME280;73859;40.830;43.828;2023-11-19T10:34:27;83208.59;;;16.12;41.48
83836;BME280;73859;40.830;43.828;2023-11-19T10:36:54;83216.19;;;15.66;41.56
83836;BME280;73859;40.830;43.828;2023-11-19T10:39:22;83168.94;;;14.89;42.56
83836;BME280;73859;40.830;43.828;2023-11-19T10:41:50;83230.75;;;14.79;43.02
83836;BME280;73859;40.830;43.828;2023-11-19T10:44:32;83217.94;;;14.33;44.71
83836;BME280;73859;40.830;43.828;2023-11-19T10:47:05;83249.00;;;14.31;44.41
83836;BME280;73859;40.830;43.828;2023-11-19T10:49:35;83237.66;;;13.97;44.97
83836;BME280;73859;40.830;43.828;2023-11-19T10:52:05;83252.41;;;13.66;45.63
83836;BME280;73859;40.830;43.828;2023-11-19T10:54:35;83264.66;;;13.56;45.71
83836;BME280;73859;40.830;43.828;2023-11-19T10:57:05;83261.47;;;13.29;46.55
83836;BME280;73859;40.830;43.828;2023-11-19T10:59:37;83258.19;;;13.28;46.56
83836;BME280;73859;40.830;43.828;2023-11-19T11:02:07;83254.56;;;13.50;45.53
83836;BME280;73859;40.830;43.828;2023-11-19T11:04:40;83188.50;;;13.53;45.65
83836;BME280;73859;40.830;43.828;2023-11-19T11:07:09;83222.13;;;15.16;43.19
83836;BME280;73859;40.830;43.828;2023-11-19T11:09:37;83220.78;;;16.19;41.26
83836;BME280;73859;40.830;43.828;2023-11-19T11:12:06;83219.13;;;16.57;40.74
83836;BME280;73859;40.830;43.828;2023-11-19T11:14:34;83223.91;;;16.60;42.02
83836;BME280;73859;40.830;43.828;2023-11-19T11:17:03;83231.22;;;16.19;42.27
83836;BME280;73859;40.830;43.828;2023-11-19T11:19:35;83225.25;;;15.65;42.59
83836;BME280;73859;40.830;43.828;2023-11-19T11:22:04;83220.94;;;15.39;43.21
83836;BME280;73859;40.830;43.828;2023-11-19T11:36:23;83167.28;;;14.93;41.57
83836;BME280;73859;40.830;43.828;2023-11-19T11:38:51;83211.66;;;14.95;43.37
83836;BME280;73859;40.830;43.828;2023-11-19T11:41:22;83210.75;;;14.81;43.54
83836;BME280;73859;40.830;43.828;2023-11-19T11:43:55;83195.06;;;14.50;43.22
83836;BME280;73859;40.830;43.828;2023-11-19T11:49:07;83206.44;;;14.16;42.81
83836;BME280;73859;40.830;43.828;2023-11-19T11:57:02;83187.81;;;14.49;42.15
83836;BME280;73859;40.830;43.828;2023-11-19T11:59:43;83186.41;;;14.57;42.06
83836;BME280;73859;40.830;43.828;2023-11-19T12:02:13;83175.75;;;14.44;42.66
83836;BME280;73859;40.830;43.828;2023-11-19T12:04:40;83170.56;;;14.24;42.48
83836;BME280;73859;40.830;43.828;2023-11-19T12:07:13;83192.88;;;14.28;42.18
83836;BME280;73859;40.830;43.828;2023-11-19T12:09:41;83158.25;;;14.35;43.01
83836;BME280;73859;40.830;43.828;2023-11-19T12:15:00;83173.06;;;14.82;41.91
83836;BME280;73859;40.830;43.828;2023-11-19T12:17:48;83176.25;;;14.71;42.11
83836;BME280;73859;40.830;43.828;2023-11-19T12:20:18;83131.81;;;14.29;42.99
83836;BME280;73859;40.830;43.828;2023-11-19T12:22:50;83162.06;;;14.34;42.98
83836;BME280;73859;40.830;43.828;2023-11-19T12:25:18;83177.56;;;14.41;42.88
83836;BME280;73859;40.830;43.828;2023-11-19T12:27:50;83174.81;;;14.30;42.80
83836;BME280;73859;40.830;43.828;2023-11-19T12:30:25;83182.75;;;14.22;42.91
83836;BME280;73859;40.830;43.828;2023-11-19T12:32:54;83174.13;;;14.10;42.80
83836;BME280;73859;40.830;43.828;2023-11-19T12:35:22;83171.56;;;13.91;41.46
83836;BME280;73859;40.830;43.828;2023-11-19T12:37:50;83188.69;;;13.84;42.66
83836;BME280;73859;40.830;43.828;2023-11-19T12:40:20;83166.25;;;13.69;42.32
83836;BME280;73859;40.830;43.828;2023-11-19T12:42:48;83109.63;;;13.30;43.13
83836;BME280;73859;40.830;43.828;2023-11-19T12:45:16;83149.13;;;13.66;42.61
83836;BME280;73859;40.830;43.828;2023-11-19T12:47:44;83181.13;;;13.79;42.83
83836;BME280;73859;40.830;43.828;2023-11-19T12:50:14;83179.47;;;13.73;42.76
83836;BME280;73859;40.830;43.828;2023-11-19T12:52:42;83164.59;;;13.55;43.48
83836;BME280;73859;40.830;43.828;2023-11-19T12:55:27;83191.09;;;13.63;42.98
83836;BME280;73859;40.830;43.828;2023-11-19T12:57:56;83154.31;;;13.47;43.31
83836;BME280;73859;40.830;43.828;2023-11-19T13:00:26;83124.91;;;13.25;43.29
83836;BME280;73859;40.830;43.828;2023-11-19T13:02:55;83163.34;;;13.46;43.61
83836;BME280;73859;40.830;43.828;2023-11-19T13:05:24;83149.38;;;13.42;43.21
83836;BME280;73859;40.830;43.828;2023-11-19T13:10:52;83145.16;;;13.37;43.14
83836;BME280;73859;40.830;43.828;2023-11-19T13:13:22;83132.84;;;13.27;43.46
83836;BME280;73859;40.830;43.828;2023-11-19T13:15:50;83135.72;;;13.32;43.75
83836;BME280;73859;40.830;43.828;2023-11-19T13:18:17;83090.13;;;12.92;44.04
83836;BME280;73859;40.830;43.828;2023-11-19T13:20:45;83128.47;;;13.20;43.97
83836;BME280;73859;40.830;43.828;2023-11-19T13:23:12;83097.22;;;12.82;43.68
83836;BME280;73859;40.830;43.828;2023-11-19T13:25:43;83139.06;;;13.05;44.20
83836;BME280;73859;40.830;43.828;2023-11-19T13:28:12;83134.94;;;12.93;44.42